Airfield :
LOGIN :

Register | Disclaimer

   EN    FR    IT 

 










Legend :    VFR   Marginal VFR   IFR   Intensive IFR   Very Intensive IFR
Visi :
Ceiling :
>= 8 km
>= 3000ft
5 to 8 km
1000 to 3000 ft
1500m to 5 km
500 to 1000 ft
800 to 1500m
200 to 500 ft
< 800m
< 200 ft
Symbols :   Thunderstorms  Fog  Heavy snow  Heavy precipitations  Wind > 20 kt
SIGMETs :     Misc.  Thunderstorms  Icing  Turbulence  Mountain Waves  Volcanic Ashes






- Airport Elevation : 425 ft
- IATA code : DTM


EDLW - Dortmund

CURRENT METAR :
  • 021050Z 18007KT 120V240 CAVOK 23/07 Q1022

EXPIRED METARs :
  • 021020Z 18005KT 110V250 CAVOK 23/08 Q1022
  • 020950Z 21007KT 170V260 CAVOK 22/08 Q1022
  • 020920Z 21006KT CAVOK 22/07 Q1022
  • 020850Z 19005KT 110V230 9999 FEW049 20/08 Q1023
  • 020820Z 20007KT 160V230 CAVOK 21/08 Q1023
  • 012150Z AUTO 21004KT 9999 // SCT054/// 13/09 Q1022

TAF TAF EDLW
Valid from the 02 at 06:00 until the 03 at 06:00 UTC


020500Z 0206/0306 18007KT CAVOK
BECMG 0217/0220 VRB03KT
BECMG 0300/0303 20005KT



MET'MAP, your aeronautical weather chart ! - Copyright ORBIFLY December 2007 - Disclaimer

ORBIFLY MET'MAP TEAM :

Programming & Development : Alexandra Zaïnal
Original concept : Baudouin d'Aumeries
Technical & hardware support : Manuel Goepfert
Assistance : Marc-Olivier Méhu




SOURCES & CREDITS :

   NOAA